Terminal Aerodrome Forecast
Issued by NWS

Home | Current Version | Previous Version | Text Only | Print | Product List | Glossary On
Versions: 1 2 3 4 5 6 7 8 9 10 11 12 13 14 15 16 17 18 19 20 21 22 23 24 25 26
000
FTAK31 PAFA 270632 AAA
TAFAFA
TAF AMD
PAFA 270632Z 2707/2812 24010G18KT P6SM -SN BKN024 BKN045
      TEMPO 2707/2708 1SM -SN BR OVC015
     FM271200 28009G16KT 2SM -SN BR OVC025
     FM271900 25003KT 1/2SM SN FZFG OVC007
     FM280000 27006KT 1 1/2SM -SN BR OVC015=

USA.gov is the U.S. government's official web portal to all federal, state and local government web resources and services.